sensor_id;sensor_type;location;lat;lon;timestamp;P1;durP1;ratioP1;P2;durP2;ratioP2
74267;SDS011;62638;51.362;12.472;2022-08-01T00:02:12;4.63;;;3.93;;
74267;SDS011;62638;51.362;12.472;2022-08-01T00:04:37;4.70;;;4.30;;
74267;SDS011;62638;51.362;12.472;2022-08-01T00:07:02;4.97;;;3.70;;
74267;SDS011;62638;51.362;12.472;2022-08-01T00:09:28;5.82;;;3.83;;
74267;SDS011;62638;51.362;12.472;2022-08-01T00:11:54;4.97;;;3.90;;
74267;SDS011;62638;51.362;12.472;2022-08-01T00:14:19;5.72;;;3.70;;
74267;SDS011;62638;51.362;12.472;2022-08-01T00:16:45;5.90;;;4.25;;
74267;SDS011;62638;51.362;12.472;2022-08-01T00:19:10;4.18;;;3.60;;
74267;SDS011;62638;51.362;12.472;2022-08-01T00:21:35;4.67;;;3.80;;
74267;SDS011;62638;51.362;12.472;2022-08-01T00:24:01;5.18;;;4.20;;
74267;SDS011;62638;51.362;12.472;2022-08-01T00:26:26;4.47;;;4.00;;
74267;SDS011;62638;51.362;12.472;2022-08-01T00:28:51;4.65;;;3.75;;
74267;SDS011;62638;51.362;12.472;2022-08-01T00:31:17;6.07;;;4.43;;
74267;SDS011;62638;51.362;12.472;2022-08-01T00:33:42;6.90;;;4.07;;
74267;SDS011;62638;51.362;12.472;2022-08-01T00:36:07;4.80;;;4.03;;
74267;SDS011;62638;51.362;12.472;2022-08-01T00:38:32;5.17;;;4.03;;
74267;SDS011;62638;51.362;12.472;2022-08-01T00:40:58;5.10;;;3.73;;
74267;SDS011;62638;51.362;12.472;2022-08-01T00:43:23;5.45;;;3.75;;
74267;SDS011;62638;51.362;12.472;2022-08-01T00:45:48;4.30;;;3.87;;
74267;SDS011;62638;51.362;12.472;2022-08-01T00:48:14;5.60;;;3.63;;
74267;SDS011;62638;51.362;12.472;2022-08-01T00:50:39;5.00;;;4.07;;
74267;SDS011;62638;51.362;12.472;2022-08-01T00:53:04;4.88;;;3.42;;
74267;SDS011;62638;51.362;12.472;2022-08-01T00:55:30;6.10;;;3.70;;
74267;SDS011;62638;51.362;12.472;2022-08-01T00:57:56;4.72;;;3.97;;
74267;SDS011;62638;51.362;12.472;2022-08-01T01:00:23;6.65;;;3.70;;
74267;SDS011;62638;51.362;12.472;2022-08-01T01:02:50;4.70;;;3.90;;
74267;SDS011;62638;51.362;12.472;2022-08-01T01:05:15;5.70;;;3.70;;
74267;SDS011;62638;51.362;12.472;2022-08-01T01:07:44;6.15;;;3.30;;
74267;SDS011;62638;51.362;12.472;2022-08-01T01:13:18;4.43;;;3.72;;
74267;SDS011;62638;51.362;12.472;2022-08-01T01:15:58;4.60;;;4.10;;
74267;SDS011;62638;51.362;12.472;2022-08-01T01:18:30;5.55;;;4.00;;
74267;SDS011;62638;51.362;12.472;2022-08-01T01:21:02;3.83;;;3.42;;
74267;SDS011;62638;51.362;12.472;2022-08-01T01:23:50;4.05;;;3.63;;
74267;SDS011;62638;51.362;12.472;2022-08-01T01:29:21;6.43;;;3.55;;
74267;SDS011;62638;51.362;12.472;2022-08-01T01:32:04;4.35;;;3.50;;
74267;SDS011;62638;51.362;12.472;2022-08-01T01:34:33;5.30;;;3.78;;
74267;SDS011;62638;51.362;12.472;2022-08-01T01:37:04;5.82;;;3.67;;
74267;SDS011;62638;51.362;12.472;2022-08-01T01:39:33;4.72;;;3.30;;
74267;SDS011;62638;51.362;12.472;2022-08-01T01:42:00;3.45;;;3.13;;
74267;SDS011;62638;51.362;12.472;2022-08-01T01:44:29;5.90;;;3.22;;
74267;SDS011;62638;51.362;12.472;2022-08-01T01:46:56;4.50;;;3.30;;
74267;SDS011;62638;51.362;12.472;2022-08-01T01:49:23;3.90;;;3.20;;
74267;SDS011;62638;51.362;12.472;2022-08-01T01:51:52;4.05;;;3.38;;
74267;SDS011;62638;51.362;12.472;2022-08-01T01:54:20;6.18;;;3.33;;
74267;SDS011;62638;51.362;12.472;2022-08-01T01:56:47;5.88;;;4.13;;
74267;SDS011;62638;51.362;12.472;2022-08-01T01:59:18;5.93;;;3.75;;
74267;SDS011;62638;51.362;12.472;2022-08-01T02:01:49;4.53;;;3.45;;
74267;SDS011;62638;51.362;12.472;2022-08-01T02:04:16;4.43;;;3.47;;
74267;SDS011;62638;51.362;12.472;2022-08-01T02:06:45;4.93;;;4.00;;
74267;SDS011;62638;51.362;12.472;2022-08-01T02:09:11;5.30;;;3.80;;
74267;SDS011;62638;51.362;12.472;2022-08-01T02:11:41;4.57;;;3.92;;
74267;SDS011;62638;51.362;12.472;2022-08-01T02:14:07;5.18;;;3.30;;
74267;SDS011;62638;51.362;12.472;2022-08-01T02:16:36;6.22;;;3.97;;
74267;SDS011;62638;51.362;12.472;2022-08-01T02:19:04;3.83;;;3.13;;
74267;SDS011;62638;51.362;12.472;2022-08-01T02:21:30;4.40;;;3.63;;
74267;SDS011;62638;51.362;12.472;2022-08-01T02:24:04;5.35;;;4.40;;
74267;SDS011;62638;51.362;12.472;2022-08-01T02:26:38;5.53;;;4.05;;
74267;SDS011;62638;51.362;12.472;2022-08-01T02:29:07;6.55;;;4.25;;
74267;SDS011;62638;51.362;12.472;2022-08-01T02:31:38;4.82;;;4.32;;
74267;SDS011;62638;51.362;12.472;2022-08-01T02:34:09;4.65;;;4.15;;
74267;SDS011;62638;51.362;12.472;2022-08-01T02:36:37;5.70;;;4.13;;
74267;SDS011;62638;51.362;12.472;2022-08-01T02:39:06;7.00;;;4.40;;
74267;SDS011;62638;51.362;12.472;2022-08-01T02:41:35;6.75;;;4.45;;
74267;SDS011;62638;51.362;12.472;2022-08-01T02:44:07;5.45;;;3.78;;
74267;SDS011;62638;51.362;12.472;2022-08-01T02:46:37;6.53;;;4.13;;
74267;SDS011;62638;51.362;12.472;2022-08-01T02:49:06;5.00;;;3.72;;
74267;SDS011;62638;51.362;12.472;2022-08-01T02:51:33;6.97;;;4.40;;
74267;SDS011;62638;51.362;12.472;2022-08-01T02:54:01;4.82;;;4.05;;
74267;SDS011;62638;51.362;12.472;2022-08-01T02:59:00;5.53;;;4.20;;
74267;SDS011;62638;51.362;12.472;2022-08-01T03:01:27;5.75;;;4.20;;
74267;SDS011;62638;51.362;12.472;2022-08-01T03:03:53;6.40;;;3.92;;
74267;SDS011;62638;51.362;12.472;2022-08-01T03:06:19;4.97;;;3.72;;
74267;SDS011;62638;51.362;12.472;2022-08-01T03:08:45;9.65;;;4.47;;
74267;SDS011;62638;51.362;12.472;2022-08-01T03:11:13;6.78;;;3.70;;
74267;SDS011;62638;51.362;12.472;2022-08-01T03:13:41;5.72;;;3.90;;
74267;SDS011;62638;51.362;12.472;2022-08-01T03:16:09;7.28;;;3.97;;
74267;SDS011;62638;51.362;12.472;2022-08-01T03:18:36;4.90;;;4.10;;
74267;SDS011;62638;51.362;12.472;2022-08-01T03:21:05;6.05;;;4.47;;
74267;SDS011;62638;51.362;12.472;2022-08-01T03:23:33;6.00;;;4.35;;
74267;SDS011;62638;51.362;12.472;2022-08-01T03:26:02;6.50;;;3.78;;
74267;SDS011;62638;51.362;12.472;2022-08-01T03:28:28;6.75;;;4.30;;
74267;SDS011;62638;51.362;12.472;2022-08-01T03:30:54;7.05;;;4.10;;
74267;SDS011;62638;51.362;12.472;2022-08-01T03:33:20;4.60;;;3.58;;
74267;SDS011;62638;51.362;12.472;2022-08-01T03:35:46;4.13;;;3.60;;
74267;SDS011;62638;51.362;12.472;2022-08-01T03:38:15;5.32;;;3.63;;
74267;SDS011;62638;51.362;12.472;2022-08-01T03:40:45;5.75;;;3.75;;
74267;SDS011;62638;51.362;12.472;2022-08-01T03:43:15;5.43;;;3.45;;
74267;SDS011;62638;51.362;12.472;2022-08-01T03:46:06;4.10;;;3.22;;
74267;SDS011;62638;51.362;12.472;2022-08-01T03:48:35;4.03;;;3.40;;
74267;SDS011;62638;51.362;12.472;2022-08-01T03:51:04;4.18;;;3.17;;
74267;SDS011;62638;51.362;12.472;2022-08-01T03:53:31;4.68;;;3.30;;
74267;SDS011;62638;51.362;12.472;2022-08-01T03:55:58;3.85;;;2.90;;
74267;SDS011;62638;51.362;12.472;2022-08-01T03:58:25;4.22;;;3.05;;
74267;SDS011;62638;51.362;12.472;2022-08-01T04:00:52;3.88;;;3.33;;
74267;SDS011;62638;51.362;12.472;2022-08-01T04:03:19;3.85;;;2.70;;
74267;SDS011;62638;51.362;12.472;2022-08-01T04:05:44;3.83;;;3.08;;
74267;SDS011;62638;51.362;12.472;2022-08-01T04:08:10;5.70;;;2.97;;
74267;SDS011;62638;51.362;12.472;2022-08-01T04:10:36;3.35;;;2.67;;
74267;SDS011;62638;51.362;12.472;2022-08-01T04:13:02;3.90;;;2.80;;
74267;SDS011;62638;51.362;12.472;2022-08-01T04:15:27;3.20;;;2.70;;
74267;SDS011;62638;51.362;12.472;2022-08-01T04:17:53;4.80;;;3.33;;
74267;SDS011;62638;51.362;12.472;2022-08-01T04:20:19;3.55;;;2.70;;
74267;SDS011;62638;51.362;12.472;2022-08-01T04:22:44;5.10;;;2.33;;
74267;SDS011;62638;51.362;12.472;2022-08-01T04:25:14;4.30;;;2.90;;
74267;SDS011;62638;51.362;12.472;2022-08-01T04:27:45;4.15;;;2.60;;
74267;SDS011;62638;51.362;12.472;2022-08-01T04:30:13;5.60;;;2.42;;
74267;SDS011;62638;51.362;12.472;2022-08-01T04:32:40;4.43;;;2.60;;
74267;SDS011;62638;51.362;12.472;2022-08-01T04:35:10;3.92;;;2.67;;
74267;SDS011;62638;51.362;12.472;2022-08-01T04:37:41;4.38;;;3.10;;
74267;SDS011;62638;51.362;12.472;2022-08-01T04:40:09;3.35;;;2.80;;
74267;SDS011;62638;51.362;12.472;2022-08-01T04:42:36;5.60;;;2.78;;
74267;SDS011;62638;51.362;12.472;2022-08-01T04:45:01;4.25;;;2.80;;
74267;SDS011;62638;51.362;12.472;2022-08-01T04:47:26;6.28;;;3.05;;
74267;SDS011;62638;51.362;12.472;2022-08-01T04:49:52;4.20;;;3.17;;
74267;SDS011;62638;51.362;12.472;2022-08-01T04:52:18;4.55;;;2.83;;
74267;SDS011;62638;51.362;12.472;2022-08-01T04:54:44;4.22;;;3.05;;
74267;SDS011;62638;51.362;12.472;2022-08-01T04:57:11;3.97;;;3.20;;
74267;SDS011;62638;51.362;12.472;2022-08-01T04:59:37;6.75;;;3.08;;
74267;SDS011;62638;51.362;12.472;2022-08-01T05:02:07;5.57;;;3.42;;
74267;SDS011;62638;51.362;12.472;2022-08-01T05:04:34;3.75;;;3.28;;
74267;SDS011;62638;51.362;12.472;2022-08-01T05:06:59;3.72;;;2.85;;
74267;SDS011;62638;51.362;12.472;2022-08-01T05:09:25;6.75;;;3.08;;
74267;SDS011;62638;51.362;12.472;2022-08-01T05:11:51;4.03;;;2.92;;
74267;SDS011;62638;51.362;12.472;2022-08-01T05:14:16;4.50;;;2.90;;
74267;SDS011;62638;51.362;12.472;2022-08-01T05:16:41;3.47;;;2.50;;
74267;SDS011;62638;51.362;12.472;2022-08-01T05:19:07;2.80;;;2.17;;
74267;SDS011;62638;51.362;12.472;2022-08-01T05:21:33;3.33;;;2.55;;
74267;SDS011;62638;51.362;12.472;2022-08-01T05:23:58;3.40;;;2.42;;
74267;SDS011;62638;51.362;12.472;2022-08-01T05:26:23;3.07;;;2.67;;
74267;SDS011;62638;51.362;12.472;2022-08-01T05:28:49;3.30;;;2.50;;
74267;SDS011;62638;51.362;12.472;2022-08-01T05:31:14;4.33;;;3.03;;
74267;SDS011;62638;51.362;12.472;2022-08-01T05:33:39;3.77;;;2.10;;
74267;SDS011;62638;51.362;12.472;2022-08-01T05:36:04;3.20;;;2.37;;
74267;SDS011;62638;51.362;12.472;2022-08-01T05:38:30;4.60;;;2.50;;
74267;SDS011;62638;51.362;12.472;2022-08-01T05:40:55;3.40;;;2.37;;
74267;SDS011;62638;51.362;12.472;2022-08-01T05:43:20;4.82;;;2.85;;
74267;SDS011;62638;51.362;12.472;2022-08-01T05:45:46;3.87;;;2.50;;
74267;SDS011;62638;51.362;12.472;2022-08-01T05:48:12;3.97;;;2.47;;
74267;SDS011;62638;51.362;12.472;2022-08-01T05:50:37;3.27;;;2.20;;
74267;SDS011;62638;51.362;12.472;2022-08-01T05:53:02;2.43;;;2.13;;
74267;SDS011;62638;51.362;12.472;2022-08-01T05:55:28;4.22;;;2.13;;
74267;SDS011;62638;51.362;12.472;2022-08-01T05:57:53;3.13;;;2.10;;
74267;SDS011;62638;51.362;12.472;2022-08-01T06:00:18;3.30;;;2.03;;
74267;SDS011;62638;51.362;12.472;2022-08-01T06:02:43;3.25;;;2.28;;
74267;SDS011;62638;51.362;12.472;2022-08-01T06:05:09;2.40;;;2.00;;
74267;SDS011;62638;51.362;12.472;2022-08-01T06:07:35;2.33;;;1.77;;
74267;SDS011;62638;51.362;12.472;2022-08-01T06:10:00;3.25;;;2.22;;
74267;SDS011;62638;51.362;12.472;2022-08-01T06:12:25;2.23;;;2.00;;
74267;SDS011;62638;51.362;12.472;2022-08-01T06:14:50;3.07;;;2.23;;
74267;SDS011;62638;51.362;12.472;2022-08-01T06:17:16;3.35;;;2.13;;
74267;SDS011;62638;51.362;12.472;2022-08-01T06:19:41;2.67;;;2.17;;
74267;SDS011;62638;51.362;12.472;2022-08-01T06:22:06;2.40;;;2.00;;
74267;SDS011;62638;51.362;12.472;2022-08-01T06:24:32;3.08;;;2.03;;
74267;SDS011;62638;51.362;12.472;2022-08-01T06:26:57;3.37;;;1.90;;
74267;SDS011;62638;51.362;12.472;2022-08-01T06:29:22;2.70;;;2.13;;
74267;SDS011;62638;51.362;12.472;2022-08-01T06:31:48;2.90;;;2.07;;
74267;SDS011;62638;51.362;12.472;2022-08-01T06:34:13;3.17;;;2.63;;
74267;SDS011;62638;51.362;12.472;2022-08-01T06:36:40;3.50;;;2.72;;
74267;SDS011;62638;51.362;12.472;2022-08-01T06:39:05;3.60;;;3.13;;
74267;SDS011;62638;51.362;12.472;2022-08-01T06:41:30;4.53;;;3.03;;
74267;SDS011;62638;51.362;12.472;2022-08-01T06:43:55;4.13;;;3.37;;
74267;SDS011;62638;51.362;12.472;2022-08-01T06:46:21;2.83;;;2.53;;
74267;SDS011;62638;51.362;12.472;2022-08-01T06:48:46;3.97;;;2.47;;
74267;SDS011;62638;51.362;12.472;2022-08-01T06:51:11;2.90;;;2.00;;
74267;SDS011;62638;51.362;12.472;2022-08-01T06:53:40;2.40;;;2.00;;
74267;SDS011;62638;51.362;12.472;2022-08-01T06:56:06;3.08;;;2.15;;
74267;SDS011;62638;51.362;12.472;2022-08-01T06:58:33;2.13;;;1.75;;
74267;SDS011;62638;51.362;12.472;2022-08-01T07:00:59;2.05;;;1.58;;
74267;SDS011;62638;51.362;12.472;2022-08-01T07:03:24;2.58;;;1.60;;
74267;SDS011;62638;51.362;12.472;2022-08-01T07:05:50;2.35;;;2.00;;
74267;SDS011;62638;51.362;12.472;2022-08-01T07:08:15;2.50;;;1.70;;
74267;SDS011;62638;51.362;12.472;2022-08-01T07:10:40;1.85;;;1.48;;
74267;SDS011;62638;51.362;12.472;2022-08-01T07:13:06;3.25;;;1.88;;
74267;SDS011;62638;51.362;12.472;2022-08-01T07:15:31;4.10;;;2.03;;
74267;SDS011;62638;51.362;12.472;2022-08-01T07:17:56;2.10;;;1.43;;
74267;SDS011;62638;51.362;12.472;2022-08-01T07:20:23;2.30;;;1.50;;
74267;SDS011;62638;51.362;12.472;2022-08-01T07:22:49;2.30;;;1.90;;
74267;SDS011;62638;51.362;12.472;2022-08-01T07:25:14;3.43;;;1.50;;
74267;SDS011;62638;51.362;12.472;2022-08-01T07:27:39;2.72;;;1.80;;
74267;SDS011;62638;51.362;12.472;2022-08-01T07:30:05;2.28;;;1.83;;
74267;SDS011;62638;51.362;12.472;2022-08-01T07:32:30;2.50;;;1.90;;
74267;SDS011;62638;51.362;12.472;2022-08-01T07:34:56;2.80;;;2.03;;
74267;SDS011;62638;51.362;12.472;2022-08-01T07:37:21;2.85;;;1.80;;
74267;SDS011;62638;51.362;12.472;2022-08-01T07:39:47;1.83;;;1.23;;
74267;SDS011;62638;51.362;12.472;2022-08-01T07:42:12;1.00;;;0.90;;
74267;SDS011;62638;51.362;12.472;2022-08-01T07:44:37;2.07;;;1.03;;
74267;SDS011;62638;51.362;12.472;2022-08-01T07:47:03;3.42;;;1.17;;
74267;SDS011;62638;51.362;12.472;2022-08-01T07:49:29;0.98;;;0.70;;
74267;SDS011;62638;51.362;12.472;2022-08-01T07:51:55;2.75;;;1.65;;
74267;SDS011;62638;51.362;12.472;2022-08-01T07:54:20;3.58;;;1.60;;
74267;SDS011;62638;51.362;12.472;2022-08-01T07:56:48;8.07;;;1.60;;
74267;SDS011;62638;51.362;12.472;2022-08-01T07:59:13;2.25;;;1.58;;
74267;SDS011;62638;51.362;12.472;2022-08-01T08:01:39;2.20;;;1.50;;
74267;SDS011;62638;51.362;12.472;2022-08-01T08:04:04;2.13;;;1.27;;
74267;SDS011;62638;51.362;12.472;2022-08-01T08:06:29;2.10;;;1.20;;
74267;SDS011;62638;51.362;12.472;2022-08-01T08:08:54;3.47;;;1.20;;
74267;SDS011;62638;51.362;12.472;2022-08-01T08:11:20;1.23;;;0.80;;
74267;SDS011;62638;51.362;12.472;2022-08-01T08:13:45;7.57;;;2.10;;
74267;SDS011;62638;51.362;12.472;2022-08-01T08:16:10;1.20;;;0.83;;
74267;SDS011;62638;51.362;12.472;2022-08-01T08:18:36;2.43;;;1.27;;
74267;SDS011;62638;51.362;12.472;2022-08-01T08:21:02;4.45;;;1.58;;
74267;SDS011;62638;51.362;12.472;2022-08-01T08:23:27;1.33;;;0.83;;
74267;SDS011;62638;51.362;12.472;2022-08-01T08:26:11;7.25;;;1.98;;
74267;SDS011;62638;51.362;12.472;2022-08-01T08:28:37;4.67;;;1.47;;
74267;SDS011;62638;51.362;12.472;2022-08-01T08:31:02;3.60;;;1.30;;
74267;SDS011;62638;51.362;12.472;2022-08-01T08:33:27;2.38;;;0.85;;
74267;SDS011;62638;51.362;12.472;2022-08-01T08:35:53;1.50;;;0.60;;
74267;SDS011;62638;51.362;12.472;2022-08-01T08:38:19;2.08;;;1.25;;
74267;SDS011;62638;51.362;12.472;2022-08-01T08:40:45;2.42;;;0.63;;
74267;SDS011;62638;51.362;12.472;2022-08-01T08:43:11;2.10;;;0.60;;
74267;SDS011;62638;51.362;12.472;2022-08-01T08:45:36;2.55;;;0.60;;
74267;SDS011;62638;51.362;12.472;2022-08-01T08:48:03;0.90;;;0.65;;
74267;SDS011;62638;51.362;12.472;2022-08-01T08:50:30;2.13;;;0.60;;
74267;SDS011;62638;51.362;12.472;2022-08-01T08:52:57;0.80;;;0.60;;
74267;SDS011;62638;51.362;12.472;2022-08-01T08:55:25;3.13;;;0.90;;
74267;SDS011;62638;51.362;12.472;2022-08-01T08:57:51;1.33;;;0.77;;
74267;SDS011;62638;51.362;12.472;2022-08-01T09:00:18;1.02;;;0.80;;
74267;SDS011;62638;51.362;12.472;2022-08-01T09:02:44;3.55;;;1.20;;
74267;SDS011;62638;51.362;12.472;2022-08-01T09:05:11;3.15;;;1.35;;
74267;SDS011;62638;51.362;12.472;2022-08-01T09:07:37;5.47;;;1.17;;
74267;SDS011;62638;51.362;12.472;2022-08-01T09:10:03;4.75;;;1.08;;
74267;SDS011;62638;51.362;12.472;2022-08-01T09:12:29;2.15;;;1.38;;
74267;SDS011;62638;51.362;12.472;2022-08-01T09:14:54;1.67;;;1.02;;
74267;SDS011;62638;51.362;12.472;2022-08-01T09:17:20;0.90;;;0.73;;
74267;SDS011;62638;51.362;12.472;2022-08-01T09:19:46;0.70;;;0.70;;
74267;SDS011;62638;51.362;12.472;2022-08-01T09:22:18;1.25;;;0.90;;
74267;SDS011;62638;51.362;12.472;2022-08-01T09:25:02;1.30;;;0.82;;
74267;SDS011;62638;51.362;12.472;2022-08-01T09:27:34;1.67;;;0.75;;
74267;SDS011;62638;51.362;12.472;2022-08-01T09:30:14;0.50;;;0.50;;
74267;SDS011;62638;51.362;12.472;2022-08-01T09:32:59;1.45;;;0.55;;
74267;SDS011;62638;51.362;12.472;2022-08-01T09:35:27;0.50;;;0.50;;
74267;SDS011;62638;51.362;12.472;2022-08-01T09:38:19;0.73;;;0.40;;
74267;SDS011;62638;51.362;12.472;2022-08-01T09:40:53;0.77;;;0.40;;
74267;SDS011;62638;51.362;12.472;2022-08-01T09:43:20;1.83;;;0.90;;
74267;SDS011;62638;51.362;12.472;2022-08-01T09:45:48;1.10;;;0.80;;
74267;SDS011;62638;51.362;12.472;2022-08-01T09:48:13;1.38;;;0.70;;
74267;SDS011;62638;51.362;12.472;2022-08-01T09:50:44;0.82;;;0.60;;
74267;SDS011;62638;51.362;12.472;2022-08-01T09:53:12;1.15;;;0.68;;
74267;SDS011;62638;51.362;12.472;2022-08-01T09:55:38;1.73;;;0.70;;
74267;SDS011;62638;51.362;12.472;2022-08-01T09:58:05;1.10;;;1.00;;
74267;SDS011;62638;51.362;12.472;2022-08-01T10:00:32;1.85;;;0.80;;
74267;SDS011;62638;51.362;12.472;2022-08-01T10:02:58;1.00;;;0.68;;
74267;SDS011;62638;51.362;12.472;2022-08-01T10:05:34;1.45;;;0.70;;
74267;SDS011;62638;51.362;12.472;2022-08-01T10:08:03;1.60;;;0.70;;
74267;SDS011;62638;51.362;12.472;2022-08-01T10:10:30;0.57;;;0.50;;
74267;SDS011;62638;51.362;12.472;2022-08-01T10:12:56;0.93;;;0.55;;
74267;SDS011;62638;51.362;12.472;2022-08-01T10:15:23;0.57;;;0.40;;
74267;SDS011;62638;51.362;12.472;2022-08-01T10:17:59;0.73;;;0.60;;
74267;SDS011;62638;51.362;12.472;2022-08-01T10:20:28;0.50;;;0.40;;
74267;SDS011;62638;51.362;12.472;2022-08-01T10:22:55;1.58;;;0.60;;
74267;SDS011;62638;51.362;12.472;2022-08-01T10:25:24;0.55;;;0.50;;
74267;SDS011;62638;51.362;12.472;2022-08-01T10:27:53;0.38;;;0.32;;
74267;SDS011;62638;51.362;12.472;2022-08-01T10:30:20;0.75;;;0.40;;
74267;SDS011;62638;51.362;12.472;2022-08-01T10:32:46;0.88;;;0.50;;
74267;SDS011;62638;51.362;12.472;2022-08-01T10:35:12;0.60;;;0.50;;
74267;SDS011;62638;51.362;12.472;2022-08-01T10:37:42;2.47;;;0.50;;
74267;SDS011;62638;51.362;12.472;2022-08-01T10:40:08;1.33;;;0.65;;
74267;SDS011;62638;51.362;12.472;2022-08-01T10:42:36;1.13;;;0.70;;
74267;SDS011;62638;51.362;12.472;2022-08-01T10:47:35;3.72;;;1.10;;
74267;SDS011;62638;51.362;12.472;2022-08-01T10:50:27;1.55;;;0.93;;
74267;SDS011;62638;51.362;12.472;2022-08-01T10:53:07;1.75;;;1.00;;
74267;SDS011;62638;51.362;12.472;2022-08-01T10:55:47;1.45;;;1.13;;
74267;SDS011;62638;51.362;12.472;2022-08-01T10:58:19;2.35;;;1.27;;
74267;SDS011;62638;51.362;12.472;2022-08-01T11:01:02;7.40;;;1.83;;
74267;SDS011;62638;51.362;12.472;2022-08-01T11:03:57;3.47;;;1.10;;
74267;SDS011;62638;51.362;12.472;2022-08-01T11:06:26;2.78;;;1.33;;
74267;SDS011;62638;51.362;12.472;2022-08-01T11:09:00;9.60;;;2.40;;
74267;SDS011;62638;51.362;12.472;2022-08-01T11:11:28;2.55;;;1.50;;
74267;SDS011;62638;51.362;12.472;2022-08-01T11:16:26;2.15;;;1.60;;
74267;SDS011;62638;51.362;12.472;2022-08-01T11:18:52;5.40;;;1.75;;
74267;SDS011;62638;51.362;12.472;2022-08-01T11:21:18;4.35;;;1.60;;
74267;SDS011;62638;51.362;12.472;2022-08-01T11:23:48;2.65;;;1.70;;
74267;SDS011;62638;51.362;12.472;2022-08-01T11:26:15;5.70;;;2.13;;
74267;SDS011;62638;51.362;12.472;2022-08-01T11:28:41;2.63;;;1.75;;
74267;SDS011;62638;51.362;12.472;2022-08-01T11:38:36;1.80;;;1.58;;
74267;SDS011;62638;51.362;12.472;2022-08-01T11:41:15;3.13;;;1.35;;
74267;SDS011;62638;51.362;12.472;2022-08-01T11:43:55;2.05;;;1.67;;
74267;SDS011;62638;51.362;12.472;2022-08-01T11:46:44;2.38;;;2.00;;
74267;SDS011;62638;51.362;12.472;2022-08-01T11:52:09;3.13;;;2.22;;
74267;SDS011;62638;51.362;12.472;2022-08-01T11:54:41;2.90;;;2.08;;
74267;SDS011;62638;51.362;12.472;2022-08-01T11:57:09;3.03;;;2.10;;
74267;SDS011;62638;51.362;12.472;2022-08-01T11:59:40;2.42;;;1.90;;
74267;SDS011;62638;51.362;12.472;2022-08-01T12:02:20;4.18;;;2.17;;
74267;SDS011;62638;51.362;12.472;2022-08-01T12:07:18;3.88;;;2.28;;
74267;SDS011;62638;51.362;12.472;2022-08-01T12:09:44;2.20;;;1.90;;
74267;SDS011;62638;51.362;12.472;2022-08-01T12:12:09;2.28;;;2.05;;
74267;SDS011;62638;51.362;12.472;2022-08-01T12:14:35;2.30;;;1.63;;
74267;SDS011;62638;51.362;12.472;2022-08-01T12:17:00;2.70;;;1.50;;
74267;SDS011;62638;51.362;12.472;2022-08-01T12:19:26;2.22;;;1.98;;
74267;SDS011;62638;51.362;12.472;2022-08-01T12:22:07;2.27;;;2.07;;
74267;SDS011;62638;51.362;12.472;2022-08-01T12:24:38;1.90;;;1.70;;
74267;SDS011;62638;51.362;12.472;2022-08-01T12:27:08;2.08;;;1.80;;
74267;SDS011;62638;51.362;12.472;2022-08-01T12:29:35;2.20;;;2.00;;
74267;SDS011;62638;51.362;12.472;2022-08-01T12:32:02;2.33;;;2.00;;
74267;SDS011;62638;51.362;12.472;2022-08-01T12:34:29;1.88;;;1.67;;
74267;SDS011;62638;51.362;12.472;2022-08-01T12:36:55;2.22;;;1.90;;
74267;SDS011;62638;51.362;12.472;2022-08-01T12:39:22;2.42;;;2.10;;
74267;SDS011;62638;51.362;12.472;2022-08-01T12:41:54;2.47;;;2.28;;
74267;SDS011;62638;51.362;12.472;2022-08-01T12:44:19;2.70;;;2.13;;
74267;SDS011;62638;51.362;12.472;2022-08-01T12:46:44;2.42;;;1.58;;
74267;SDS011;62638;51.362;12.472;2022-08-01T12:49:10;1.90;;;1.70;;
74267;SDS011;62638;51.362;12.472;2022-08-01T12:51:35;1.85;;;1.65;;
74267;SDS011;62638;51.362;12.472;2022-08-01T12:54:01;2.67;;;1.83;;
74267;SDS011;62638;51.362;12.472;2022-08-01T12:56:32;1.95;;;1.67;;
74267;SDS011;62638;51.362;12.472;2022-08-01T12:58:58;1.50;;;1.40;;
74267;SDS011;62638;51.362;12.472;2022-08-01T13:01:26;3.25;;;1.48;;
74267;SDS011;62638;51.362;12.472;2022-08-01T13:04:02;1.73;;;1.50;;
74267;SDS011;62638;51.362;12.472;2022-08-01T13:06:31;1.65;;;1.20;;
74267;SDS011;62638;51.362;12.472;2022-08-01T13:09:07;2.10;;;1.20;;
74267;SDS011;62638;51.362;12.472;2022-08-01T13:11:37;2.05;;;1.55;;
74267;SDS011;62638;51.362;12.472;2022-08-01T13:14:02;1.50;;;1.20;;
74267;SDS011;62638;51.362;12.472;2022-08-01T13:16:28;1.67;;;1.17;;
74267;SDS011;62638;51.362;12.472;2022-08-01T13:18:55;2.95;;;1.30;;
74267;SDS011;62638;51.362;12.472;2022-08-01T13:21:22;2.80;;;1.40;;
74267;SDS011;62638;51.362;12.472;2022-08-01T13:29:22;2.78;;;1.40;;
74267;SDS011;62638;51.362;12.472;2022-08-01T13:34:33;2.40;;;1.38;;
74267;SDS011;62638;51.362;12.472;2022-08-01T13:36:59;1.42;;;1.33;;
74267;SDS011;62638;51.362;12.472;2022-08-01T13:39:26;1.58;;;1.27;;
74267;SDS011;62638;51.362;12.472;2022-08-01T13:42:05;1.48;;;1.38;;
74267;SDS011;62638;51.362;12.472;2022-08-01T13:44:32;1.08;;;0.98;;
74267;SDS011;62638;51.362;12.472;2022-08-01T13:46:57;1.10;;;1.00;;
74267;SDS011;62638;51.362;12.472;2022-08-01T13:49:22;1.20;;;1.10;;
74267;SDS011;62638;51.362;12.472;2022-08-01T13:51:48;1.50;;;1.10;;
74267;SDS011;62638;51.362;12.472;2022-08-01T13:54:15;1.05;;;0.82;;
74267;SDS011;62638;51.362;12.472;2022-08-01T13:56:40;1.88;;;1.00;;
74267;SDS011;62638;51.362;12.472;2022-08-01T13:59:06;1.40;;;1.00;;
74267;SDS011;62638;51.362;12.472;2022-08-01T14:01:31;1.17;;;0.73;;
74267;SDS011;62638;51.362;12.472;2022-08-01T14:03:57;1.20;;;0.90;;
74267;SDS011;62638;51.362;12.472;2022-08-01T14:06:22;2.23;;;0.93;;
74267;SDS011;62638;51.362;12.472;2022-08-01T14:08:47;2.07;;;0.97;;
74267;SDS011;62638;51.362;12.472;2022-08-01T14:11:13;1.10;;;0.90;;
74267;SDS011;62638;51.362;12.472;2022-08-01T14:13:38;1.42;;;1.00;;
74267;SDS011;62638;51.362;12.472;2022-08-01T14:16:05;1.80;;;0.90;;
74267;SDS011;62638;51.362;12.472;2022-08-01T14:18:31;1.65;;;1.25;;
74267;SDS011;62638;51.362;12.472;2022-08-01T14:20:57;2.38;;;1.00;;
74267;SDS011;62638;51.362;12.472;2022-08-01T14:23:23;1.40;;;0.90;;
74267;SDS011;62638;51.362;12.472;2022-08-01T14:25:48;1.43;;;1.10;;
74267;SDS011;62638;51.362;12.472;2022-08-01T14:28:13;1.88;;;0.90;;
74267;SDS011;62638;51.362;12.472;2022-08-01T14:30:39;1.05;;;0.75;;
74267;SDS011;62638;51.362;12.472;2022-08-01T14:33:06;1.60;;;0.90;;
74267;SDS011;62638;51.362;12.472;2022-08-01T14:35:31;1.90;;;1.10;;
74267;SDS011;62638;51.362;12.472;2022-08-01T14:37:56;1.47;;;0.83;;
74267;SDS011;62638;51.362;12.472;2022-08-01T14:40:22;1.25;;;0.68;;
74267;SDS011;62638;51.362;12.472;2022-08-01T14:42:47;1.10;;;0.80;;
74267;SDS011;62638;51.362;12.472;2022-08-01T14:45:13;1.00;;;0.82;;
74267;SDS011;62638;51.362;12.472;2022-08-01T14:47:39;1.10;;;0.80;;
74267;SDS011;62638;51.362;12.472;2022-08-01T14:50:07;1.27;;;0.80;;
74267;SDS011;62638;51.362;12.472;2022-08-01T14:52:34;1.00;;;0.80;;
74267;SDS011;62638;51.362;12.472;2022-08-01T14:55:02;0.85;;;0.70;;
74267;SDS011;62638;51.362;12.472;2022-08-01T14:57:29;2.10;;;1.05;;
74267;SDS011;62638;51.362;12.472;2022-08-01T14:59:54;1.52;;;0.95;;
74267;SDS011;62638;51.362;12.472;2022-08-01T15:02:20;0.80;;;0.70;;
74267;SDS011;62638;51.362;12.472;2022-08-01T15:04:46;1.02;;;0.70;;
74267;SDS011;62638;51.362;12.472;2022-08-01T15:07:12;1.58;;;1.10;;
74267;SDS011;62638;51.362;12.472;2022-08-01T15:09:38;1.55;;;0.88;;
74267;SDS011;62638;51.362;12.472;2022-08-01T15:12:04;1.55;;;1.00;;